sensor_id;sensor_type;location;lat;lon;timestamp;noise_LAeq;noise_LA_min;noise_LA_max;noise_LA01;noise_LA95
67320;Laerm;57665;51.436;5.978;2023-12-20T00:00:06;37.10;35.88;38.63;;
67320;Laerm;57665;51.436;5.978;2023-12-20T00:00:17;37.42;35.63;42.64;;
67320;Laerm;57665;51.436;5.978;2023-12-20T00:00:27;37.16;35.82;38.52;;
67320;Laerm;57665;51.436;5.978;2023-12-20T00:00:37;37.06;35.94;38.20;;
67320;Laerm;57665;51.436;5.978;2023-12-20T00:00:48;37.29;35.90;38.77;;
67320;Laerm;57665;51.436;5.978;2023-12-20T00:00:58;37.29;36.02;38.22;;
67320;Laerm;57665;51.436;5.978;2023-12-20T00:01:08;37.57;35.88;38.48;;
67320;Laerm;57665;51.436;5.978;2023-12-20T00:01:22;37.27;36.03;38.92;;
67320;Laerm;57665;51.436;5.978;2023-12-20T00:01:33;37.17;36.06;38.44;;
67320;Laerm;57665;51.436;5.978;2023-12-20T00:01:43;37.12;36.18;38.35;;
67320;Laerm;57665;51.436;5.978;2023-12-20T00:01:53;37.40;36.20;38.59;;
67320;Laerm;57665;51.436;5.978;2023-12-20T00:02:03;37.47;35.70;38.87;;
67320;Laerm;57665;51.436;5.978;2023-12-20T00:02:14;37.48;35.75;38.70;;
67320;Laerm;57665;51.436;5.978;2023-12-20T00:02:24;37.84;36.83;39.08;;
67320;Laerm;57665;51.436;5.978;2023-12-20T00:02:37;37.89;36.56;39.35;;
67320;Laerm;57665;51.436;5.978;2023-12-20T00:02:47;37.13;35.83;38.29;;
67320;Laerm;57665;51.436;5.978;2023-12-20T00:02:58;37.15;35.72;38.50;;
67320;Laerm;57665;51.436;5.978;2023-12-20T00:03:09;37.47;36.28;38.90;;
67320;Laerm;57665;51.436;5.978;2023-12-20T00:03:19;37.71;36.26;39.04;;
67320;Laerm;57665;51.436;5.978;2023-12-20T00:03:29;37.04;35.78;38.33;;
67320;Laerm;57665;51.436;5.978;2023-12-20T00:03:39;37.03;35.84;38.16;;
67320;Laerm;57665;51.436;5.978;2023-12-20T00:03:49;37.25;35.77;38.37;;
67320;Laerm;57665;51.436;5.978;2023-12-20T00:04:09;36.87;35.71;38.22;;
67320;Laerm;57665;51.436;5.978;2023-12-20T00:04:19;36.54;35.35;37.47;;
67320;Laerm;57665;51.436;5.978;2023-12-20T00:04:29;36.97;35.58;38.36;;
67320;Laerm;57665;51.436;5.978;2023-12-20T00:04:39;36.92;35.84;38.03;;
67320;Laerm;57665;51.436;5.978;2023-12-20T00:04:52;36.97;36.05;38.21;;
67320;Laerm;57665;51.436;5.978;2023-12-20T00:05:03;37.20;36.02;38.29;;
67320;Laerm;57665;51.436;5.978;2023-12-20T00:05:13;37.07;35.75;38.10;;
67320;Laerm;57665;51.436;5.978;2023-12-20T00:05:24;37.07;36.03;38.92;;
67320;Laerm;57665;51.436;5.978;2023-12-20T00:05:43;36.93;35.79;38.13;;
67320;Laerm;57665;51.436;5.978;2023-12-20T00:05:53;36.75;35.62;38.16;;
67320;Laerm;57665;51.436;5.978;2023-12-20T00:06:03;37.07;35.80;38.25;;
67320;Laerm;57665;51.436;5.978;2023-12-20T00:06:13;37.40;36.23;38.48;;
67320;Laerm;57665;51.436;5.978;2023-12-20T00:06:33;37.14;36.08;38.67;;
67320;Laerm;57665;51.436;5.978;2023-12-20T00:06:43;37.02;36.09;37.90;;
67320;Laerm;57665;51.436;5.978;2023-12-20T00:06:53;36.81;35.69;38.16;;
67320;Laerm;57665;51.436;5.978;2023-12-20T00:07:04;37.05;35.77;37.97;;
67320;Laerm;57665;51.436;5.978;2023-12-20T00:07:14;37.35;35.61;38.59;;
67320;Laerm;57665;51.436;5.978;2023-12-20T00:07:24;37.48;36.10;38.66;;
67320;Laerm;57665;51.436;5.978;2023-12-20T00:07:34;37.53;36.00;38.82;;
67320;Laerm;57665;51.436;5.978;2023-12-20T00:07:45;37.03;35.90;38.00;;
67320;Laerm;57665;51.436;5.978;2023-12-20T00:07:55;36.92;35.82;38.16;;
67320;Laerm;57665;51.436;5.978;2023-12-20T00:08:05;36.77;35.39;37.94;;
67320;Laerm;57665;51.436;5.978;2023-12-20T00:08:16;37.24;35.62;38.51;;
67320;Laerm;57665;51.436;5.978;2023-12-20T00:08:26;37.03;35.90;38.32;;
67320;Laerm;57665;51.436;5.978;2023-12-20T00:08:37;36.46;35.50;37.67;;
67320;Laerm;57665;51.436;5.978;2023-12-20T00:08:47;37.14;35.76;38.58;;
67320;Laerm;57665;51.436;5.978;2023-12-20T00:08:57;36.77;35.76;38.14;;
67320;Laerm;57665;51.436;5.978;2023-12-20T00:09:08;37.12;36.02;38.29;;
67320;Laerm;57665;51.436;5.978;2023-12-20T00:09:18;36.95;35.67;38.30;;
67320;Laerm;57665;51.436;5.978;2023-12-20T00:09:28;36.85;35.54;37.88;;
67320;Laerm;57665;51.436;5.978;2023-12-20T00:09:38;37.07;35.99;38.14;;
67320;Laerm;57665;51.436;5.978;2023-12-20T00:09:48;37.01;36.07;38.47;;
67320;Laerm;57665;51.436;5.978;2023-12-20T00:09:59;36.96;35.43;38.32;;
67320;Laerm;57665;51.436;5.978;2023-12-20T00:10:09;36.82;35.43;37.97;;
67320;Laerm;57665;51.436;5.978;2023-12-20T00:10:19;36.71;35.76;37.99;;
67320;Laerm;57665;51.436;5.978;2023-12-20T00:10:30;36.83;35.86;38.05;;
67320;Laerm;57665;51.436;5.978;2023-12-20T00:10:40;36.63;35.53;37.97;;
67320;Laerm;57665;51.436;5.978;2023-12-20T00:10:50;36.42;35.37;37.39;;
67320;Laerm;57665;51.436;5.978;2023-12-20T00:11:01;36.90;35.40;38.18;;
67320;Laerm;57665;51.436;5.978;2023-12-20T00:11:14;36.94;35.70;38.45;;
67320;Laerm;57665;51.436;5.978;2023-12-20T00:11:24;36.94;35.55;38.02;;
67320;Laerm;57665;51.436;5.978;2023-12-20T00:11:34;36.71;35.76;37.84;;
67320;Laerm;57665;51.436;5.978;2023-12-20T00:11:44;36.99;35.50;38.55;;
67320;Laerm;57665;51.436;5.978;2023-12-20T00:11:59;37.13;35.83;38.66;;
67320;Laerm;57665;51.436;5.978;2023-12-20T00:12:09;37.05;35.82;38.39;;
67320;Laerm;57665;51.436;5.978;2023-12-20T00:12:19;37.19;35.96;38.30;;
67320;Laerm;57665;51.436;5.978;2023-12-20T00:12:32;36.88;35.58;38.06;;
67320;Laerm;57665;51.436;5.978;2023-12-20T00:12:45;37.42;35.74;39.22;;
67320;Laerm;57665;51.436;5.978;2023-12-20T00:12:55;38.70;36.82;44.64;;
67320;Laerm;57665;51.436;5.978;2023-12-20T00:13:05;38.25;36.62;41.69;;
67320;Laerm;57665;51.436;5.978;2023-12-20T00:13:17;37.21;35.72;38.97;;
67320;Laerm;57665;51.436;5.978;2023-12-20T00:13:27;37.00;35.67;38.22;;
67320;Laerm;57665;51.436;5.978;2023-12-20T00:13:38;36.74;35.64;38.03;;
67320;Laerm;57665;51.436;5.978;2023-12-20T00:13:50;36.75;35.91;37.75;;
67320;Laerm;57665;51.436;5.978;2023-12-20T00:14:01;36.65;35.28;37.74;;
67320;Laerm;57665;51.436;5.978;2023-12-20T00:14:11;36.90;35.76;37.95;;
67320;Laerm;57665;51.436;5.978;2023-12-20T00:14:21;37.03;36.01;37.90;;
67320;Laerm;57665;51.436;5.978;2023-12-20T00:14:40;36.79;35.41;37.98;;
67320;Laerm;57665;51.436;5.978;2023-12-20T00:14:50;36.96;35.78;37.93;;
67320;Laerm;57665;51.436;5.978;2023-12-20T00:15:06;36.80;35.33;38.10;;
67320;Laerm;57665;51.436;5.978;2023-12-20T00:15:16;37.06;35.77;38.60;;
67320;Laerm;57665;51.436;5.978;2023-12-20T00:15:27;36.83;35.57;38.84;;
67320;Laerm;57665;51.436;5.978;2023-12-20T00:15:37;36.78;35.61;37.88;;
67320;Laerm;57665;51.436;5.978;2023-12-20T00:15:50;37.06;36.00;38.13;;
67320;Laerm;57665;51.436;5.978;2023-12-20T00:16:00;36.83;35.62;37.98;;
67320;Laerm;57665;51.436;5.978;2023-12-20T00:16:11;37.08;35.89;38.56;;
67320;Laerm;57665;51.436;5.978;2023-12-20T00:16:21;37.02;35.86;38.01;;
67320;Laerm;57665;51.436;5.978;2023-12-20T00:16:31;36.75;35.44;38.25;;
67320;Laerm;57665;51.436;5.978;2023-12-20T00:16:41;36.88;35.71;38.06;;
67320;Laerm;57665;51.436;5.978;2023-12-20T00:16:52;39.08;36.45;43.30;;
67320;Laerm;57665;51.436;5.978;2023-12-20T00:17:02;37.14;35.53;38.43;;
67320;Laerm;57665;51.436;5.978;2023-12-20T00:17:12;36.53;35.04;38.06;;
67320;Laerm;57665;51.436;5.978;2023-12-20T00:17:22;36.82;35.77;38.86;;
67320;Laerm;57665;51.436;5.978;2023-12-20T00:17:33;40.42;37.48;45.62;;
67320;Laerm;57665;51.436;5.978;2023-12-20T00:17:46;37.43;35.51;39.57;;
67320;Laerm;57665;51.436;5.978;2023-12-20T00:17:56;37.08;35.82;38.70;;
67320;Laerm;57665;51.436;5.978;2023-12-20T00:18:15;37.01;35.85;38.03;;
67320;Laerm;57665;51.436;5.978;2023-12-20T00:18:26;37.21;35.93;38.38;;
67320;Laerm;57665;51.436;5.978;2023-12-20T00:18:36;36.62;35.19;37.86;;
67320;Laerm;57665;51.436;5.978;2023-12-20T00:18:52;36.66;35.57;37.94;;
67320;Laerm;57665;51.436;5.978;2023-12-20T00:19:02;36.66;35.51;37.83;;
67320;Laerm;57665;51.436;5.978;2023-12-20T00:19:12;37.34;36.01;38.64;;
67320;Laerm;57665;51.436;5.978;2023-12-20T00:19:22;36.90;35.39;38.05;;
67320;Laerm;57665;51.436;5.978;2023-12-20T00:19:33;36.68;35.76;37.78;;
67320;Laerm;57665;51.436;5.978;2023-12-20T00:19:43;36.71;35.38;37.95;;
67320;Laerm;57665;51.436;5.978;2023-12-20T00:19:53;37.86;36.71;39.64;;
67320;Laerm;57665;51.436;5.978;2023-12-20T00:20:03;37.42;36.30;38.92;;
67320;Laerm;57665;51.436;5.978;2023-12-20T00:20:14;37.31;36.10;38.70;;
67320;Laerm;57665;51.436;5.978;2023-12-20T00:20:27;36.70;35.21;37.83;;
67320;Laerm;57665;51.436;5.978;2023-12-20T00:20:38;37.03;35.81;38.11;;
67320;Laerm;57665;51.436;5.978;2023-12-20T00:20:51;36.92;35.71;38.23;;
67320;Laerm;57665;51.436;5.978;2023-12-20T00:21:01;37.35;35.66;41.07;;
67320;Laerm;57665;51.436;5.978;2023-12-20T00:21:11;36.72;35.52;38.22;;
67320;Laerm;57665;51.436;5.978;2023-12-20T00:21:21;36.93;35.72;38.48;;
67320;Laerm;57665;51.436;5.978;2023-12-20T00:21:32;36.50;35.05;37.47;;
67320;Laerm;57665;51.436;5.978;2023-12-20T00:21:42;36.77;35.42;38.59;;
67320;Laerm;57665;51.436;5.978;2023-12-20T00:21:58;36.62;35.29;37.70;;
67320;Laerm;57665;51.436;5.978;2023-12-20T00:22:09;36.55;35.33;39.75;;
67320;Laerm;57665;51.436;5.978;2023-12-20T00:22:19;36.94;35.60;38.04;;
67320;Laerm;57665;51.436;5.978;2023-12-20T00:22:30;36.54;35.13;37.72;;
67320;Laerm;57665;51.436;5.978;2023-12-20T00:22:40;36.72;35.40;38.20;;
67320;Laerm;57665;51.436;5.978;2023-12-20T00:22:50;36.37;35.23;37.35;;
67320;Laerm;57665;51.436;5.978;2023-12-20T00:23:00;36.68;35.66;37.80;;
67320;Laerm;57665;51.436;5.978;2023-12-20T00:23:20;36.75;35.50;37.86;;
67320;Laerm;57665;51.436;5.978;2023-12-20T00:23:30;37.37;35.96;39.38;;
67320;Laerm;57665;51.436;5.978;2023-12-20T00:23:40;37.91;36.59;38.90;;
67320;Laerm;57665;51.436;5.978;2023-12-20T00:23:50;37.10;35.41;38.86;;
67320;Laerm;57665;51.436;5.978;2023-12-20T00:24:01;36.63;35.50;37.45;;
67320;Laerm;57665;51.436;5.978;2023-12-20T00:24:11;36.75;35.61;37.72;;
67320;Laerm;57665;51.436;5.978;2023-12-20T00:24:22;37.26;36.06;38.50;;
67320;Laerm;57665;51.436;5.978;2023-12-20T00:24:32;36.81;35.63;38.42;;
67320;Laerm;57665;51.436;5.978;2023-12-20T00:24:51;36.84;35.62;38.19;;
67320;Laerm;57665;51.436;5.978;2023-12-20T00:25:01;37.44;36.07;39.44;;
67320;Laerm;57665;51.436;5.978;2023-12-20T00:25:11;36.80;35.52;38.23;;
67320;Laerm;57665;51.436;5.978;2023-12-20T00:25:39;36.74;35.20;38.04;;
67320;Laerm;57665;51.436;5.978;2023-12-20T00:25:51;36.63;35.53;37.74;;
67320;Laerm;57665;51.436;5.978;2023-12-20T00:26:01;36.71;35.38;38.04;;
67320;Laerm;57665;51.436;5.978;2023-12-20T00:26:14;36.49;35.34;37.55;;
67320;Laerm;57665;51.436;5.978;2023-12-20T00:26:24;36.74;35.48;37.79;;
67320;Laerm;57665;51.436;5.978;2023-12-20T00:26:35;37.28;35.99;39.16;;
67320;Laerm;57665;51.436;5.978;2023-12-20T00:26:45;37.30;36.01;38.86;;
67320;Laerm;57665;51.436;5.978;2023-12-20T00:26:55;36.88;35.77;38.04;;
67320;Laerm;57665;51.436;5.978;2023-12-20T00:27:05;36.97;35.93;38.44;;
67320;Laerm;57665;51.436;5.978;2023-12-20T00:27:18;36.90;35.79;38.34;;
67320;Laerm;57665;51.436;5.978;2023-12-20T00:27:28;37.65;35.90;39.21;;
67320;Laerm;57665;51.436;5.978;2023-12-20T00:27:38;37.14;36.02;38.48;;
67320;Laerm;57665;51.436;5.978;2023-12-20T00:27:49;37.35;35.98;39.28;;
67320;Laerm;57665;51.436;5.978;2023-12-20T00:27:59;37.72;36.31;39.36;;
67320;Laerm;57665;51.436;5.978;2023-12-20T00:28:09;39.58;37.15;43.97;;
67320;Laerm;57665;51.436;5.978;2023-12-20T00:28:27;39.76;36.21;45.59;;
67320;Laerm;57665;51.436;5.978;2023-12-20T00:28:37;37.33;35.82;38.49;;
67320;Laerm;57665;51.436;5.978;2023-12-20T00:28:48;36.67;35.33;37.77;;
67320;Laerm;57665;51.436;5.978;2023-12-20T00:28:58;36.83;35.67;39.02;;
67320;Laerm;57665;51.436;5.978;2023-12-20T00:29:08;37.60;36.23;38.70;;
67320;Laerm;57665;51.436;5.978;2023-12-20T00:29:18;36.93;35.85;37.85;;
67320;Laerm;57665;51.436;5.978;2023-12-20T00:29:28;37.38;36.13;38.71;;
67320;Laerm;57665;51.436;5.978;2023-12-20T00:29:57;37.69;35.80;39.91;;
67320;Laerm;57665;51.436;5.978;2023-12-20T00:30:07;37.51;36.36;38.76;;
67320;Laerm;57665;51.436;5.978;2023-12-20T00:30:18;37.56;36.33;38.82;;
67320;Laerm;57665;51.436;5.978;2023-12-20T00:30:28;38.54;36.95;40.14;;
67320;Laerm;57665;51.436;5.978;2023-12-20T00:30:38;37.86;36.68;39.29;;
67320;Laerm;57665;51.436;5.978;2023-12-20T00:30:49;37.85;36.27;39.13;;
67320;Laerm;57665;51.436;5.978;2023-12-20T00:31:08;38.55;37.03;42.18;;
67320;Laerm;57665;51.436;5.978;2023-12-20T00:31:18;38.29;36.69;39.53;;
67320;Laerm;57665;51.436;5.978;2023-12-20T00:31:29;37.92;36.64;39.37;;
67320;Laerm;57665;51.436;5.978;2023-12-20T00:31:39;37.82;36.73;39.04;;
67320;Laerm;57665;51.436;5.978;2023-12-20T00:31:49;37.95;36.36;39.45;;
67320;Laerm;57665;51.436;5.978;2023-12-20T00:31:59;37.69;36.18;38.96;;
67320;Laerm;57665;51.436;5.978;2023-12-20T00:32:09;37.91;36.67;39.17;;
67320;Laerm;57665;51.436;5.978;2023-12-20T00:32:20;38.08;36.78;39.72;;
67320;Laerm;57665;51.436;5.978;2023-12-20T00:32:30;38.18;36.99;39.55;;
67320;Laerm;57665;51.436;5.978;2023-12-20T00:32:40;38.29;36.97;39.74;;
67320;Laerm;57665;51.436;5.978;2023-12-20T00:32:56;38.33;37.06;39.64;;
67320;Laerm;57665;51.436;5.978;2023-12-20T00:33:06;38.08;36.75;39.67;;
67320;Laerm;57665;51.436;5.978;2023-12-20T00:33:16;37.79;36.33;38.93;;
67320;Laerm;57665;51.436;5.978;2023-12-20T00:33:33;37.58;36.20;38.68;;
67320;Laerm;57665;51.436;5.978;2023-12-20T00:33:43;37.81;36.29;39.09;;
67320;Laerm;57665;51.436;5.978;2023-12-20T00:34:01;38.19;36.61;39.87;;
67320;Laerm;57665;51.436;5.978;2023-12-20T00:34:13;37.77;36.18;39.22;;
67320;Laerm;57665;51.436;5.978;2023-12-20T00:34:24;37.20;35.93;38.25;;
67320;Laerm;57665;51.436;5.978;2023-12-20T00:34:34;37.18;35.98;38.38;;
67320;Laerm;57665;51.436;5.978;2023-12-20T00:35:02;37.87;36.17;39.78;;
67320;Laerm;57665;51.436;5.978;2023-12-20T00:35:13;37.78;35.79;40.10;;
67320;Laerm;57665;51.436;5.978;2023-12-20T00:35:23;37.75;36.36;39.05;;
67320;Laerm;57665;51.436;5.978;2023-12-20T00:35:34;38.05;36.29;40.16;;
67320;Laerm;57665;51.436;5.978;2023-12-20T00:35:44;37.51;36.12;38.68;;
67320;Laerm;57665;51.436;5.978;2023-12-20T00:35:57;37.55;35.94;39.17;;
67320;Laerm;57665;51.436;5.978;2023-12-20T00:36:10;37.47;35.59;39.39;;
67320;Laerm;57665;51.436;5.978;2023-12-20T00:36:20;37.66;36.29;39.10;;
67320;Laerm;57665;51.436;5.978;2023-12-20T00:36:31;37.60;36.03;38.69;;
67320;Laerm;57665;51.436;5.978;2023-12-20T00:36:41;37.84;36.60;38.85;;
67320;Laerm;57665;51.436;5.978;2023-12-20T00:36:51;37.85;36.33;39.01;;
67320;Laerm;57665;51.436;5.978;2023-12-20T00:37:01;38.14;36.51;39.30;;
67320;Laerm;57665;51.436;5.978;2023-12-20T00:37:12;38.47;37.04;39.41;;
67320;Laerm;57665;51.436;5.978;2023-12-20T00:37:22;38.14;37.06;39.80;;
67320;Laerm;57665;51.436;5.978;2023-12-20T00:37:35;38.37;36.70;39.94;;
67320;Laerm;57665;51.436;5.978;2023-12-20T00:37:45;39.21;37.89;40.41;;
67320;Laerm;57665;51.436;5.978;2023-12-20T00:37:56;39.16;37.85;40.75;;
67320;Laerm;57665;51.436;5.978;2023-12-20T00:38:06;38.45;36.68;39.76;;
67320;Laerm;57665;51.436;5.978;2023-12-20T00:38:17;37.40;36.18;38.81;;
67320;Laerm;57665;51.436;5.978;2023-12-20T00:38:27;65.21;36.36;73.80;;
67320;Laerm;57665;51.436;5.978;2023-12-20T00:38:37;66.13;63.03;70.52;;
67320;Laerm;57665;51.436;5.978;2023-12-20T00:38:47;68.36;64.12;76.69;;
67320;Laerm;57665;51.436;5.978;2023-12-20T00:38:58;57.30;41.68;66.64;;
67320;Laerm;57665;51.436;5.978;2023-12-20T00:39:08;41.21;38.42;44.57;;
67320;Laerm;57665;51.436;5.978;2023-12-20T00:39:18;38.62;37.01;45.25;;
67320;Laerm;57665;51.436;5.978;2023-12-20T00:39:29;37.75;36.65;38.83;;
67320;Laerm;57665;51.436;5.978;2023-12-20T00:39:41;37.77;36.53;39.73;;
67320;Laerm;57665;51.436;5.978;2023-12-20T00:39:52;38.07;36.42;39.15;;
67320;Laerm;57665;51.436;5.978;2023-12-20T00:40:02;37.82;36.38;39.06;;
67320;Laerm;57665;51.436;5.978;2023-12-20T00:40:12;37.83;36.45;38.87;;
67320;Laerm;57665;51.436;5.978;2023-12-20T00:40:23;37.58;36.43;38.80;;
67320;Laerm;57665;51.436;5.978;2023-12-20T00:40:33;37.81;36.67;38.94;;
67320;Laerm;57665;51.436;5.978;2023-12-20T00:40:44;37.60;36.13;38.92;;
67320;Laerm;57665;51.436;5.978;2023-12-20T00:40:54;37.87;36.53;39.46;;
67320;Laerm;57665;51.436;5.978;2023-12-20T00:41:04;38.66;37.09;40.38;;
67320;Laerm;57665;51.436;5.978;2023-12-20T00:41:14;38.45;36.98;40.06;;
67320;Laerm;57665;51.436;5.978;2023-12-20T00:41:25;38.77;37.57;40.25;;
67320;Laerm;57665;51.436;5.978;2023-12-20T00:41:35;38.34;37.10;39.60;;
67320;Laerm;57665;51.436;5.978;2023-12-20T00:41:45;38.87;37.61;40.24;;
67320;Laerm;57665;51.436;5.978;2023-12-20T00:41:56;39.21;38.18;40.50;;
67320;Laerm;57665;51.436;5.978;2023-12-20T00:42:06;39.00;37.65;40.75;;
67320;Laerm;57665;51.436;5.978;2023-12-20T00:42:16;38.04;36.49;39.13;;
67320;Laerm;57665;51.436;5.978;2023-12-20T00:42:26;37.31;36.13;38.57;;
67320;Laerm;57665;51.436;5.978;2023-12-20T00:42:37;37.24;36.12;38.35;;
67320;Laerm;57665;51.436;5.978;2023-12-20T00:42:47;37.48;36.29;38.55;;
67320;Laerm;57665;51.436;5.978;2023-12-20T00:42:57;37.40;36.13;38.72;;
67320;Laerm;57665;51.436;5.978;2023-12-20T00:43:08;37.33;36.17;38.36;;
67320;Laerm;57665;51.436;5.978;2023-12-20T00:43:18;37.58;36.20;38.99;;
67320;Laerm;57665;51.436;5.978;2023-12-20T00:43:28;37.58;36.32;39.01;;
67320;Laerm;57665;51.436;5.978;2023-12-20T00:43:38;37.48;36.28;38.78;;
67320;Laerm;57665;51.436;5.978;2023-12-20T00:43:49;37.83;36.80;39.32;;
67320;Laerm;57665;51.436;5.978;2023-12-20T00:43:59;37.86;36.50;39.11;;
67320;Laerm;57665;51.436;5.978;2023-12-20T00:44:09;37.69;36.51;39.01;;
67320;Laerm;57665;51.436;5.978;2023-12-20T00:44:19;37.90;36.52;39.17;;
67320;Laerm;57665;51.436;5.978;2023-12-20T00:44:30;37.82;36.51;39.00;;
67320;Laerm;57665;51.436;5.978;2023-12-20T00:44:40;37.80;36.45;38.85;;
67320;Laerm;57665;51.436;5.978;2023-12-20T00:44:50;37.61;36.51;38.91;;
67320;Laerm;57665;51.436;5.978;2023-12-20T00:45:00;38.49;36.96;39.93;;
67320;Laerm;57665;51.436;5.978;2023-12-20T00:45:11;38.33;37.10;39.62;;
67320;Laerm;57665;51.436;5.978;2023-12-20T00:45:24;38.34;36.93;39.54;;
67320;Laerm;57665;51.436;5.978;2023-12-20T00:45:34;39.03;37.70;40.00;;
67320;Laerm;57665;51.436;5.978;2023-12-20T00:45:44;38.91;37.51;39.91;;
67320;Laerm;57665;51.436;5.978;2023-12-20T00:45:55;39.41;38.05;40.94;;
67320;Laerm;57665;51.436;5.978;2023-12-20T00:46:07;39.38;37.85;40.84;;
67320;Laerm;57665;51.436;5.978;2023-12-20T00:46:18;38.47;36.37;40.15;;
67320;Laerm;57665;51.436;5.978;2023-12-20T00:46:29;37.57;36.40;38.82;;
67320;Laerm;57665;51.436;5.978;2023-12-20T00:46:39;37.54;36.34;38.63;;
67320;Laerm;57665;51.436;5.978;2023-12-20T00:46:49;37.68;36.37;38.78;;
67320;Laerm;57665;51.436;5.978;2023-12-20T00:47:00;38.67;37.16;40.65;;
67320;Laerm;57665;51.436;5.978;2023-12-20T00:47:11;56.40;39.18;70.42;;
67320;Laerm;57665;51.436;5.978;2023-12-20T00:47:21;65.73;59.85;77.17;;
67320;Laerm;57665;51.436;5.978;2023-12-20T00:47:32;65.12;43.73;76.22;;
67320;Laerm;57665;51.436;5.978;2023-12-20T00:47:45;40.68;37.38;47.79;;
67320;Laerm;57665;51.436;5.978;2023-12-20T00:47:55;37.73;36.51;38.82;;
67320;Laerm;57665;51.436;5.978;2023-12-20T00:48:05;37.54;36.11;38.73;;
67320;Laerm;57665;51.436;5.978;2023-12-20T00:48:16;37.40;36.12;38.87;;
67320;Laerm;57665;51.436;5.978;2023-12-20T00:48:26;37.58;36.35;38.57;;
67320;Laerm;57665;51.436;5.978;2023-12-20T00:48:41;37.74;36.63;38.97;;
67320;Laerm;57665;51.436;5.978;2023-12-20T00:48:52;37.68;36.61;38.71;;
67320;Laerm;57665;51.436;5.978;2023-12-20T00:49:02;37.72;36.43;39.15;;
67320;Laerm;57665;51.436;5.978;2023-12-20T00:49:12;37.97;36.80;39.18;;
67320;Laerm;57665;51.436;5.978;2023-12-20T00:49:23;38.00;36.87;39.33;;
67320;Laerm;57665;51.436;5.978;2023-12-20T00:49:33;38.38;37.18;39.37;;
67320;Laerm;57665;51.436;5.978;2023-12-20T00:49:43;38.69;37.38;40.07;;
67320;Laerm;57665;51.436;5.978;2023-12-20T00:49:53;38.73;37.47;39.84;;
67320;Laerm;57665;51.436;5.978;2023-12-20T00:50:04;39.07;37.81;40.53;;
67320;Laerm;57665;51.436;5.978;2023-12-20T00:50:14;39.37;37.55;40.66;;
67320;Laerm;57665;51.436;5.978;2023-12-20T00:50:24;37.77;36.54;39.46;;
67320;Laerm;57665;51.436;5.978;2023-12-20T00:50:37;37.15;35.66;38.48;;
67320;Laerm;57665;51.436;5.978;2023-12-20T00:50:47;37.58;36.15;38.70;;
67320;Laerm;57665;51.436;5.978;2023-12-20T00:50:58;37.58;36.44;38.82;;
67320;Laerm;57665;51.436;5.978;2023-12-20T00:51:08;37.39;36.55;38.28;;
67320;Laerm;57665;51.436;5.978;2023-12-20T00:51:18;37.66;36.65;38.90;;
67320;Laerm;57665;51.436;5.978;2023-12-20T00:51:29;37.90;36.73;39.24;;
67320;Laerm;57665;51.436;5.978;2023-12-20T00:51:41;37.93;36.61;39.00;;
67320;Laerm;57665;51.436;5.978;2023-12-20T00:51:55;37.89;36.54;39.19;;
67320;Laerm;57665;51.436;5.978;2023-12-20T00:52:05;38.07;37.03;39.08;;
67320;Laerm;57665;51.436;5.978;2023-12-20T00:52:23;38.32;37.13;39.55;;
67320;Laerm;57665;51.436;5.978;2023-12-20T00:52:33;37.90;36.21;39.24;;
67320;Laerm;57665;51.436;5.978;2023-12-20T00:52:43;37.92;36.76;38.95;;
67320;Laerm;57665;51.436;5.978;2023-12-20T00:52:54;37.48;36.48;38.60;;
67320;Laerm;57665;51.436;5.978;2023-12-20T00:53:13;38.26;36.62;39.74;;
67320;Laerm;57665;51.436;5.978;2023-12-20T00:53:23;38.38;37.13;39.83;;
67320;Laerm;57665;51.436;5.978;2023-12-20T00:53:33;38.52;37.32;39.58;;
67320;Laerm;57665;51.436;5.978;2023-12-20T00:53:43;38.55;37.42;39.75;;
67320;Laerm;57665;51.436;5.978;2023-12-20T00:53:54;39.09;37.99;40.24;;
67320;Laerm;57665;51.436;5.978;2023-12-20T00:54:04;39.70;38.02;40.81;;
67320;Laerm;57665;51.436;5.978;2023-12-20T00:54:27;38.76;36.06;40.96;;
67320;Laerm;57665;51.436;5.978;2023-12-20T00:54:37;36.95;35.71;38.33;;
67320;Laerm;57665;51.436;5.978;2023-12-20T00:54:47;37.35;36.22;38.93;;
67320;Laerm;57665;51.436;5.978;2023-12-20T00:54:58;37.51;36.19;38.56;;
67320;Laerm;57665;51.436;5.978;2023-12-20T00:55:10;37.88;36.73;39.30;;
67320;Laerm;57665;51.436;5.978;2023-12-20T00:55:20;37.48;36.04;39.04;;
67320;Laerm;57665;51.436;5.978;2023-12-20T00:55:31;37.66;36.44;39.06;;
67320;Laerm;57665;51.436;5.978;2023-12-20T00:55:41;37.52;36.43;38.52;;
67320;Laerm;57665;51.436;5.978;2023-12-20T00:55:52;37.47;36.34;38.57;;
67320;Laerm;57665;51.436;5.978;2023-12-20T00:56:02;37.82;35.84;38.99;;
67320;Laerm;57665;51.436;5.978;2023-12-20T00:56:15;38.31;36.87;39.62;;
67320;Laerm;57665;51.436;5.978;2023-12-20T00:56:25;38.41;37.06;39.93;;
67320;Laerm;57665;51.436;5.978;2023-12-20T00:56:36;37.76;36.34;39.14;;
67320;Laerm;57665;51.436;5.978;2023-12-20T00:56:46;37.73;36.63;38.77;;
67320;Laerm;57665;51.436;5.978;2023-12-20T00:56:56;37.99;36.62;39.40;;
67320;Laerm;57665;51.436;5.978;2023-12-20T00:57:06;37.94;36.72;38.81;;
67320;Laerm;57665;51.436;5.978;2023-12-20T00:57:17;38.47;36.94;39.68;;
67320;Laerm;57665;51.436;5.978;2023-12-20T00:57:27;38.40;36.91;39.49;;
67320;Laerm;57665;51.436;5.978;2023-12-20T00:57:37;38.68;37.48;39.76;;
67320;Laerm;57665;51.436;5.978;2023-12-20T00:57:47;38.74;37.47;39.90;;
67320;Laerm;57665;51.436;5.978;2023-12-20T00:57:57;39.24;38.07;40.57;;
67320;Laerm;57665;51.436;5.978;2023-12-20T00:58:10;39.40;38.14;41.25;;
67320;Laerm;57665;51.436;5.978;2023-12-20T00:58:20;38.90;37.19;40.51;;
67320;Laerm;57665;51.436;5.978;2023-12-20T00:58:31;37.71;36.41;38.74;;
67320;Laerm;57665;51.436;5.978;2023-12-20T00:58:41;37.39;35.91;38.74;;
67320;Laerm;57665;51.436;5.978;2023-12-20T00:58:51;37.57;36.39;38.74;;
67320;Laerm;57665;51.436;5.978;2023-12-20T00:59:02;37.59;36.22;38.76;;
67320;Laerm;57665;51.436;5.978;2023-12-20T00:59:12;37.97;36.59;39.29;;
67320;Laerm;57665;51.436;5.978;2023-12-20T00:59:22;37.82;36.15;39.33;;
67320;Laerm;57665;51.436;5.978;2023-12-20T00:59:35;37.47;36.27;38.63;;
67320;Laerm;57665;51.436;5.978;2023-12-20T00:59:46;37.49;36.42;38.82;;
67320;Laerm;57665;51.436;5.978;2023-12-20T00:59:56;37.60;36.62;38.71;;
67320;Laerm;57665;51.436;5.978;2023-12-20T01:00:06;38.14;36.47;42.98;;
67320;Laerm;57665;51.436;5.978;2023-12-20T01:00:17;38.51;36.53;44.83;;
67320;Laerm;57665;51.436;5.978;2023-12-20T01:00:33;38.07;37.05;39.61;;
67320;Laerm;57665;51.436;5.978;2023-12-20T01:00:43;38.11;37.06;39.62;;
67320;Laerm;57665;51.436;5.978;2023-12-20T01:00:56;38.10;36.79;39.40;;
67320;Laerm;57665;51.436;5.978;2023-12-20T01:01:08;37.96;36.59;39.05;;
67320;Laerm;57665;51.436;5.978;2023-12-20T01:01:18;38.49;37.10;39.78;;
67320;Laerm;57665;51.436;5.978;2023-12-20T01:01:28;38.39;37.20;39.70;;
67320;Laerm;57665;51.436;5.978;2023-12-20T01:01:38;38.28;36.63;39.35;;
67320;Laerm;57665;51.436;5.978;2023-12-20T01:01:49;38.73;37.55;39.91;;
67320;Laerm;57665;51.436;5.978;2023-12-20T01:01:59;38.89;37.50;39.93;;
67320;Laerm;57665;51.436;5.978;2023-12-20T01:02:09;39.17;37.88;40.30;;
67320;Laerm;57665;51.436;5.978;2023-12-20T01:02:22;38.14;36.77;39.71;;
67320;Laerm;57665;51.436;5.978;2023-12-20T01:02:33;38.03;36.44;39.47;;